Pagrindinis puslapis
METAR-TAF:

METAR-TAF

Oro uostai :

Barter Island, Aliaska, Jungtinės Amerikos Valstijos

platuma: 70-08-02N, ilguma: 143-34-37W, Aukštis: 2 m

Dabartinis oras

Ataskaita buvo paskelbta 29 minutes, ne 21:52 UTC
Vėjas 6 kt iš Šiaurės Rytų
Temperatūra 3°C
Drėgmė 100%
Slėgis 998 hPa
Matomumas: 0.4 km
nežinomas, rūkas

METAR: PABA 212152Z 05006KT 1/4SM UP FG 03/03 A2946 RMK AO2 UPB41 SLP963 P0000 T00280028 $

Laikas: 14:21 (22:21 UTC)


TAF: trūkstamas

Orai ataskaitas ir orų prognozės (METAR, TAF).

turimą stotys yra geltonos ir raudonos taškus žemėlapyje.

Perkelti pele per norėdami pamatyti stoties vardą.

Tada spustelėkite, norėdami matyti oro stebėjimo ir prognozės.

Norėdami pakeisti žemėlapį: spustelėkite ant žalios mygtukų su juodo kryžiaus žemyn,; žalią mygtuką su brūkšneliu, jei norite nutolinti; arba žalių rodyklių gretimoms žemėlapius.


METAR-TAF: